Terminal Aerodrome Forecast
Issued by NWS

Home | Current Version | Previous Version | Text Only | Print | Product List | Glossary On
Versions: 1 2 3 4 5 6 7 8 9 10 11 12 13 14 15 16
252
FTAK31 PAJN 222333
TAFASI
TAF
PASI 222333Z 2300/2324 31012KT 6SM -SHRA SCT025 OVC035
      TEMPO 2300/2304 3SM SHRA BR BKN020 OVC030
     FM230600 15012KT 6SM -SHRA OVC025
     FM231200 10006KT P6SM VCSH OVC040
     FM231800 10012KT 4SM -RA OVC025 WS020/12035KT=

USA.gov is the U.S. government's official web portal to all federal, state and local government web resources and services.